sensor_id;sensor_type;location;lat;lon;timestamp;pressure;altitude;pressure_sealevel;temperature;humidity
8653;BME280;4364;52.426;9.424;2022-10-31T00:00:43;101499.47;;;13.09;92.81
8653;BME280;4364;52.426;9.424;2022-10-31T00:03:10;101499.75;;;13.08;92.95
8653;BME280;4364;52.426;9.424;2022-10-31T00:05:40;101491.56;;;13.08;93.29
8653;BME280;4364;52.426;9.424;2022-10-31T00:08:07;101497.28;;;13.06;92.77
8653;BME280;4364;52.426;9.424;2022-10-31T00:10:33;101509.06;;;13.02;93.08
8653;BME280;4364;52.426;9.424;2022-10-31T00:13:03;101500.88;;;13.02;93.27
8653;BME280;4364;52.426;9.424;2022-10-31T00:15:29;101505.75;;;13.00;93.83
8653;BME280;4364;52.426;9.424;2022-10-31T00:17:55;101503.59;;;12.96;93.74
8653;BME280;4364;52.426;9.424;2022-10-31T00:20:22;101515.88;;;12.99;94.32
8653;BME280;4364;52.426;9.424;2022-10-31T00:22:49;101525.72;;;12.95;93.53
8653;BME280;4364;52.426;9.424;2022-10-31T00:25:15;101512.06;;;13.05;93.98
8653;BME280;4364;52.426;9.424;2022-10-31T00:27:42;101525.97;;;13.04;93.98
8653;BME280;4364;52.426;9.424;2022-10-31T00:30:10;101530.88;;;13.17;93.92
8653;BME280;4364;52.426;9.424;2022-10-31T00:32:36;101533.88;;;13.10;93.80
8653;BME280;4364;52.426;9.424;2022-10-31T00:35:03;101537.97;;;13.08;93.72
8653;BME280;4364;52.426;9.424;2022-10-31T00:37:30;101534.97;;;13.09;94.05
8653;BME280;4364;52.426;9.424;2022-10-31T00:39:56;101535.81;;;13.15;94.59
8653;BME280;4364;52.426;9.424;2022-10-31T00:42:23;101538.53;;;13.15;94.71
8653;BME280;4364;52.426;9.424;2022-10-31T00:44:50;101545.34;;;13.12;94.76
8653;BME280;4364;52.426;9.424;2022-10-31T00:47:16;101542.09;;;13.10;94.71
8653;BME280;4364;52.426;9.424;2022-10-31T00:49:44;101544.25;;;13.19;94.58
8653;BME280;4364;52.426;9.424;2022-10-31T00:52:11;101551.34;;;13.14;94.43
8653;BME280;4364;52.426;9.424;2022-10-31T00:54:37;101562.28;;;13.14;94.70
8653;BME280;4364;52.426;9.424;2022-10-31T00:57:04;101557.91;;;13.13;95.15
8653;BME280;4364;52.426;9.424;2022-10-31T00:59:30;101557.94;;;13.08;95.21
8653;BME280;4364;52.426;9.424;2022-10-31T01:01:57;101555.47;;;13.07;95.61
8653;BME280;4364;52.426;9.424;2022-10-31T01:04:24;101560.94;;;13.07;95.95
8653;BME280;4364;52.426;9.424;2022-10-31T01:06:51;101564.19;;;13.14;95.92
8653;BME280;4364;52.426;9.424;2022-10-31T01:09:18;101568.84;;;13.13;95.92
8653;BME280;4364;52.426;9.424;2022-10-31T01:11:45;101561.19;;;13.10;95.90
8653;BME280;4364;52.426;9.424;2022-10-31T01:14:11;101564.19;;;13.09;96.62
8653;BME280;4364;52.426;9.424;2022-10-31T01:16:38;101571.84;;;13.07;96.70
8653;BME280;4364;52.426;9.424;2022-10-31T01:19:04;101570.72;;;13.13;95.93
8653;BME280;4364;52.426;9.424;2022-10-31T01:21:31;101572.38;;;13.09;96.58
8653;BME280;4364;52.426;9.424;2022-10-31T01:23:58;101583.03;;;13.10;96.47
8653;BME280;4364;52.426;9.424;2022-10-31T01:26:28;101586.84;;;13.20;96.40
8653;BME280;4364;52.426;9.424;2022-10-31T01:29:02;101579.50;;;13.20;96.39
8653;BME280;4364;52.426;9.424;2022-10-31T01:31:34;101581.13;;;13.21;96.86
8653;BME280;4364;52.426;9.424;2022-10-31T01:34:01;101577.03;;;13.19;97.11
8653;BME280;4364;52.426;9.424;2022-10-31T01:36:34;101583.88;;;13.31;97.17
8653;BME280;4364;52.426;9.424;2022-10-31T01:39:04;101580.56;;;13.19;97.46
8653;BME280;4364;52.426;9.424;2022-10-31T01:41:34;101585.22;;;13.13;97.87
8653;BME280;4364;52.426;9.424;2022-10-31T01:47:14;101590.41;;;13.10;98.50
8653;BME280;4364;52.426;9.424;2022-10-31T01:49:46;101588.50;;;13.05;99.27
8653;BME280;4364;52.426;9.424;2022-10-31T01:52:42;101586.31;;;13.07;98.98
8653;BME280;4364;52.426;9.424;2022-10-31T01:55:26;101587.69;;;13.05;99.46
8653;BME280;4364;52.426;9.424;2022-10-31T01:58:00;101593.41;;;13.08;99.12
8653;BME280;4364;52.426;9.424;2022-10-31T02:00:29;101591.50;;;13.09;99.51
8653;BME280;4364;52.426;9.424;2022-10-31T02:02:55;101583.56;;;13.02;99.53
8653;BME280;4364;52.426;9.424;2022-10-31T02:05:25;101587.13;;;13.03;99.70
8653;BME280;4364;52.426;9.424;2022-10-31T02:08:17;101590.94;;;12.96;100.00
8653;BME280;4364;52.426;9.424;2022-10-31T02:10:49;101591.75;;;12.92;100.00
8653;BME280;4364;52.426;9.424;2022-10-31T02:13:16;101596.09;;;12.88;100.00
8653;BME280;4364;52.426;9.424;2022-10-31T02:15:51;101591.22;;;12.90;100.00
8653;BME280;4364;52.426;9.424;2022-10-31T02:18:18;101601.00;;;12.81;100.00
8653;BME280;4364;52.426;9.424;2022-10-31T02:29:10;101602.91;;;12.75;100.00
8653;BME280;4364;52.426;9.424;2022-10-31T02:31:56;101592.00;;;12.75;100.00
8653;BME280;4364;52.426;9.424;2022-10-31T02:39:56;101593.59;;;12.66;100.00
8653;BME280;4364;52.426;9.424;2022-10-31T02:43:06;101589.53;;;12.63;100.00
8653;BME280;4364;52.426;9.424;2022-10-31T02:48:27;101580.50;;;12.57;100.00
8653;BME280;4364;52.426;9.424;2022-10-31T02:51:02;101580.75;;;12.56;100.00
8653;BME280;4364;52.426;9.424;2022-10-31T02:53:36;101583.47;;;12.56;100.00
8653;BME280;4364;52.426;9.424;2022-10-31T02:56:16;101578.56;;;12.53;100.00
8653;BME280;4364;52.426;9.424;2022-10-31T02:58:57;101582.66;;;12.50;100.00
8653;BME280;4364;52.426;9.424;2022-10-31T03:07:35;101606.63;;;12.38;100.00
8653;BME280;4364;52.426;9.424;2022-10-31T03:13:06;101603.31;;;12.31;100.00
8653;BME280;4364;52.426;9.424;2022-10-31T03:15:38;101604.16;;;12.31;100.00
8653;BME280;4364;52.426;9.424;2022-10-31T03:18:09;101606.28;;;12.24;100.00
8653;BME280;4364;52.426;9.424;2022-10-31T03:21:04;101609.81;;;12.19;100.00
8653;BME280;4364;52.426;9.424;2022-10-31T03:23:35;101619.34;;;12.17;100.00
8653;BME280;4364;52.426;9.424;2022-10-31T03:26:05;101617.66;;;12.11;100.00
8653;BME280;4364;52.426;9.424;2022-10-31T03:28:43;101617.94;;;12.09;100.00
8653;BME280;4364;52.426;9.424;2022-10-31T03:31:15;101611.66;;;12.09;100.00
8653;BME280;4364;52.426;9.424;2022-10-31T03:33:45;101617.94;;;12.09;100.00
8653;BME280;4364;52.426;9.424;2022-10-31T03:36:14;101614.38;;;12.03;100.00
8653;BME280;4364;52.426;9.424;2022-10-31T03:38:44;101611.91;;;12.02;100.00
8653;BME280;4364;52.426;9.424;2022-10-31T03:41:18;101612.41;;;11.94;100.00
8653;BME280;4364;52.426;9.424;2022-10-31T03:43:54;101603.91;;;11.90;100.00
8653;BME280;4364;52.426;9.424;2022-10-31T03:46:23;101612.34;;;11.89;100.00
8653;BME280;4364;52.426;9.424;2022-10-31T03:48:53;101610.41;;;11.84;100.00
8653;BME280;4364;52.426;9.424;2022-10-31T03:51:27;101627.81;;;11.78;100.00
8653;BME280;4364;52.426;9.424;2022-10-31T03:54:20;101625.03;;;11.73;100.00
8653;BME280;4364;52.426;9.424;2022-10-31T03:57:29;101635.63;;;11.69;100.00
8653;BME280;4364;52.426;9.424;2022-10-31T04:00:08;101636.47;;;11.70;100.00
8653;BME280;4364;52.426;9.424;2022-10-31T04:03:05;101639.25;;;11.75;100.00
8653;BME280;4364;52.426;9.424;2022-10-31T04:05:36;101639.50;;;11.73;100.00
8653;BME280;4364;52.426;9.424;2022-10-31T04:08:07;101637.59;;;11.74;100.00
8653;BME280;4364;52.426;9.424;2022-10-31T04:10:37;101640.56;;;11.72;100.00
8653;BME280;4364;52.426;9.424;2022-10-31T04:13:08;101648.16;;;11.65;100.00
8653;BME280;4364;52.426;9.424;2022-10-31T04:15:59;101647.34;;;11.64;100.00
8653;BME280;4364;52.426;9.424;2022-10-31T04:18:28;101648.41;;;11.63;100.00
8653;BME280;4364;52.426;9.424;2022-10-31T04:21:06;101653.88;;;11.63;100.00
8653;BME280;4364;52.426;9.424;2022-10-31T04:23:34;101649.22;;;11.64;100.00
8653;BME280;4364;52.426;9.424;2022-10-31T04:26:11;101645.13;;;11.61;100.00
8653;BME280;4364;52.426;9.424;2022-10-31T04:28:38;101636.59;;;11.53;100.00
8653;BME280;4364;52.426;9.424;2022-10-31T04:31:05;101641.19;;;11.47;100.00
8653;BME280;4364;52.426;9.424;2022-10-31T04:33:37;101641.47;;;11.45;100.00
8653;BME280;4364;52.426;9.424;2022-10-31T04:36:05;101637.03;;;11.39;100.00
8653;BME280;4364;52.426;9.424;2022-10-31T04:38:31;101636.22;;;11.39;100.00
8653;BME280;4364;52.426;9.424;2022-10-31T04:40:58;101636.75;;;11.36;100.00
8653;BME280;4364;52.426;9.424;2022-10-31T04:43:45;101634.59;;;11.38;100.00
8653;BME280;4364;52.426;9.424;2022-10-31T04:46:12;101639.22;;;11.37;100.00
8653;BME280;4364;52.426;9.424;2022-10-31T04:48:39;101633.16;;;11.30;100.00
8653;BME280;4364;52.426;9.424;2022-10-31T04:51:07;101638.81;;;11.23;100.00
8653;BME280;4364;52.426;9.424;2022-10-31T04:53:33;101636.91;;;11.24;100.00
8653;BME280;4364;52.426;9.424;2022-10-31T04:56:20;101635.25;;;11.18;100.00
8653;BME280;4364;52.426;9.424;2022-10-31T04:58:51;101641.50;;;11.18;100.00
8653;BME280;4364;52.426;9.424;2022-10-31T05:01:19;101634.66;;;11.16;100.00
8653;BME280;4364;52.426;9.424;2022-10-31T05:03:47;101642.56;;;11.17;100.00
8653;BME280;4364;52.426;9.424;2022-10-31T05:06:15;101626.75;;;11.14;100.00
8653;BME280;4364;52.426;9.424;2022-10-31T05:08:42;101623.72;;;11.10;100.00
8653;BME280;4364;52.426;9.424;2022-10-31T05:11:10;101634.31;;;11.07;100.00
8653;BME280;4364;52.426;9.424;2022-10-31T05:13:38;101625.88;;;11.08;100.00
8653;BME280;4364;52.426;9.424;2022-10-31T05:16:10;101626.66;;;11.04;100.00
8653;BME280;4364;52.426;9.424;2022-10-31T05:18:49;101631.28;;;11.03;100.00
8653;BME280;4364;52.426;9.424;2022-10-31T05:21:25;101639.13;;;11.00;100.00
8653;BME280;4364;52.426;9.424;2022-10-31T05:23:56;101641.66;;;11.06;100.00
8653;BME280;4364;52.426;9.424;2022-10-31T05:26:24;101640.75;;;11.01;100.00
8653;BME280;4364;52.426;9.424;2022-10-31T05:28:52;101640.25;;;11.04;100.00
8653;BME280;4364;52.426;9.424;2022-10-31T05:31:19;101638.38;;;11.04;100.00
8653;BME280;4364;52.426;9.424;2022-10-31T05:33:47;101649.78;;;11.01;100.00
8653;BME280;4364;52.426;9.424;2022-10-31T05:36:32;101634.50;;;11.00;100.00
8653;BME280;4364;52.426;9.424;2022-10-31T05:39:02;101629.28;;;10.93;100.00
8653;BME280;4364;52.426;9.424;2022-10-31T05:41:40;101634.09;;;10.86;100.00
8653;BME280;4364;52.426;9.424;2022-10-31T05:44:15;101630.81;;;10.84;100.00
8653;BME280;4364;52.426;9.424;2022-10-31T05:46:58;101628.88;;;10.80;100.00
8653;BME280;4364;52.426;9.424;2022-10-31T05:49:43;101627.22;;;10.79;100.00
8653;BME280;4364;52.426;9.424;2022-10-31T05:52:28;101630.94;;;10.72;100.00
8653;BME280;4364;52.426;9.424;2022-10-31T05:55:03;101643.41;;;10.68;100.00
8653;BME280;4364;52.426;9.424;2022-10-31T05:57:31;101654.31;;;10.68;100.00
8653;BME280;4364;52.426;9.424;2022-10-31T05:59:58;101640.69;;;10.68;100.00
8653;BME280;4364;52.426;9.424;2022-10-31T06:02:29;101638.75;;;10.64;100.00
8653;BME280;4364;52.426;9.424;2022-10-31T06:05:28;101644.63;;;10.55;100.00
8653;BME280;4364;52.426;9.424;2022-10-31T06:07:56;101641.34;;;10.53;100.00
8653;BME280;4364;52.426;9.424;2022-10-31T06:10:23;101640.22;;;10.49;100.00
8653;BME280;4364;52.426;9.424;2022-10-31T06:12:53;101645.91;;;10.48;100.00
8653;BME280;4364;52.426;9.424;2022-10-31T06:15:32;101640.97;;;10.45;100.00
8653;BME280;4364;52.426;9.424;2022-10-31T06:18:04;101646.97;;;10.47;100.00
8653;BME280;4364;52.426;9.424;2022-10-31T06:20:44;101640.72;;;10.46;100.00
8653;BME280;4364;52.426;9.424;2022-10-31T06:23:10;101640.41;;;10.43;100.00
8653;BME280;4364;52.426;9.424;2022-10-31T06:25:39;101643.88;;;10.38;100.00
8653;BME280;4364;52.426;9.424;2022-10-31T06:28:09;101646.91;;;10.42;100.00
8653;BME280;4364;52.426;9.424;2022-10-31T06:30:56;101641.72;;;10.40;100.00
8653;BME280;4364;52.426;9.424;2022-10-31T06:33:22;101638.69;;;10.36;100.00
8653;BME280;4364;52.426;9.424;2022-10-31T06:35:54;101645.78;;;10.37;100.00
8653;BME280;4364;52.426;9.424;2022-10-31T06:38:22;101645.78;;;10.37;100.00
8653;BME280;4364;52.426;9.424;2022-10-31T06:40:49;101634.91;;;10.37;100.00
8653;BME280;4364;52.426;9.424;2022-10-31T06:43:21;101643.13;;;10.43;100.00
8653;BME280;4364;52.426;9.424;2022-10-31T06:45:55;101654.56;;;10.45;100.00
8653;BME280;4364;52.426;9.424;2022-10-31T06:48:25;101664.63;;;10.44;100.00
8653;BME280;4364;52.426;9.424;2022-10-31T06:51:13;101666.25;;;10.45;100.00
8653;BME280;4364;52.426;9.424;2022-10-31T06:53:40;101665.00;;;10.53;100.00
8653;BME280;4364;52.426;9.424;2022-10-31T06:56:09;101676.44;;;10.55;100.00
8653;BME280;4364;52.426;9.424;2022-10-31T06:58:41;101678.72;;;10.63;100.00
8653;BME280;4364;52.426;9.424;2022-10-31T07:01:10;101678.72;;;10.63;100.00
8653;BME280;4364;52.426;9.424;2022-10-31T07:03:38;101674.47;;;10.72;100.00
8653;BME280;4364;52.426;9.424;2022-10-31T07:06:04;101685.16;;;10.79;100.00
8653;BME280;4364;52.426;9.424;2022-10-31T07:08:32;101678.97;;;10.84;100.00
8653;BME280;4364;52.426;9.424;2022-10-31T07:10:58;101681.94;;;10.82;100.00
8653;BME280;4364;52.426;9.424;2022-10-31T07:13:27;101683.69;;;10.93;100.00
8653;BME280;4364;52.426;9.424;2022-10-31T07:16:04;101677.69;;;10.91;100.00
8653;BME280;4364;52.426;9.424;2022-10-31T07:18:34;101678.50;;;10.92;100.00
8653;BME280;4364;52.426;9.424;2022-10-31T07:21:01;101681.53;;;10.96;100.00
8653;BME280;4364;52.426;9.424;2022-10-31T07:23:28;101683.19;;;10.97;100.00
8653;BME280;4364;52.426;9.424;2022-10-31T07:26:14;101689.44;;;10.97;100.00
8653;BME280;4364;52.426;9.424;2022-10-31T07:28:46;101694.34;;;10.95;100.00
8653;BME280;4364;52.426;9.424;2022-10-31T07:31:14;101700.34;;;10.97;100.00
8653;BME280;4364;52.426;9.424;2022-10-31T07:33:41;101708.25;;;10.99;100.00
8653;BME280;4364;52.426;9.424;2022-10-31T07:36:30;101702.84;;;11.04;100.00
8653;BME280;4364;52.426;9.424;2022-10-31T07:39:01;101703.50;;;11.11;100.00
8653;BME280;4364;52.426;9.424;2022-10-31T07:41:30;101709.81;;;11.17;100.00
8653;BME280;4364;52.426;9.424;2022-10-31T07:43:56;101704.41;;;11.22;100.00
8653;BME280;4364;52.426;9.424;2022-10-31T07:46:42;101706.06;;;11.23;100.00
8653;BME280;4364;52.426;9.424;2022-10-31T07:49:27;101700.09;;;11.26;100.00
8653;BME280;4364;52.426;9.424;2022-10-31T07:52:12;101712.63;;;11.27;100.00
8653;BME280;4364;52.426;9.424;2022-10-31T07:54:57;101705.31;;;11.32;100.00
8653;BME280;4364;52.426;9.424;2022-10-31T07:57:24;101702.41;;;11.39;100.00
8653;BME280;4364;52.426;9.424;2022-10-31T07:59:51;101699.47;;;11.46;100.00
8653;BME280;4364;52.426;9.424;2022-10-31T08:02:18;101699.00;;;11.54;100.00
8653;BME280;4364;52.426;9.424;2022-10-31T08:04:48;101695.25;;;11.60;100.00
8653;BME280;4364;52.426;9.424;2022-10-31T08:07:36;101697.22;;;11.70;100.00
8653;BME280;4364;52.426;9.424;2022-10-31T08:10:06;101697.56;;;11.79;100.00
8653;BME280;4364;52.426;9.424;2022-10-31T08:12:33;101694.91;;;11.89;100.00
8653;BME280;4364;52.426;9.424;2022-10-31T08:15:03;101685.19;;;11.93;100.00
8653;BME280;4364;52.426;9.424;2022-10-31T08:17:29;101679.50;;;12.00;100.00
8653;BME280;4364;52.426;9.424;2022-10-31T08:19:58;101688.25;;;12.07;100.00
8653;BME280;4364;52.426;9.424;2022-10-31T08:22:34;101694.28;;;12.14;100.00
8653;BME280;4364;52.426;9.424;2022-10-31T08:25:06;101692.72;;;12.23;100.00
8653;BME280;4364;52.426;9.424;2022-10-31T08:27:35;101689.25;;;12.33;100.00
8653;BME280;4364;52.426;9.424;2022-10-31T08:30:01;101686.31;;;12.45;100.00
8653;BME280;4364;52.426;9.424;2022-10-31T08:32:30;101684.69;;;12.54;100.00
8653;BME280;4364;52.426;9.424;2022-10-31T08:34:56;101688.06;;;12.72;100.00
8653;BME280;4364;52.426;9.424;2022-10-31T08:37:56;101675.78;;;12.79;100.00
8653;BME280;4364;52.426;9.424;2022-10-31T08:40:27;101675.56;;;12.91;100.00
8653;BME280;4364;52.426;9.424;2022-10-31T08:42:58;101675.84;;;13.00;100.00
8653;BME280;4364;52.426;9.424;2022-10-31T08:45:27;101674.50;;;13.13;100.00
8653;BME280;4364;52.426;9.424;2022-10-31T08:48:01;101675.91;;;13.26;100.00
8653;BME280;4364;52.426;9.424;2022-10-31T08:50:31;101674.31;;;13.40;99.26
8653;BME280;4364;52.426;9.424;2022-10-31T08:53:16;101667.47;;;13.53;99.52
8653;BME280;4364;52.426;9.424;2022-10-31T08:55:46;101667.19;;;13.60;99.24
8653;BME280;4364;52.426;9.424;2022-10-31T08:58:24;101666.09;;;13.71;99.26
8653;BME280;4364;52.426;9.424;2022-10-31T09:00:59;101668.00;;;13.86;98.38
8653;BME280;4364;52.426;9.424;2022-10-31T09:03:29;101671.84;;;13.85;97.73
8653;BME280;4364;52.426;9.424;2022-10-31T09:06:00;101677.31;;;13.95;98.03
8653;BME280;4364;52.426;9.424;2022-10-31T09:08:32;101674.53;;;14.05;97.73
8653;BME280;4364;52.426;9.424;2022-10-31T09:11:02;101670.13;;;14.15;97.14
8653;BME280;4364;52.426;9.424;2022-10-31T09:14:03;101666.84;;;14.23;96.01
8653;BME280;4364;52.426;9.424;2022-10-31T09:16:49;101665.72;;;14.29;96.13
8653;BME280;4364;52.426;9.424;2022-10-31T09:19:21;101662.16;;;14.34;94.75
8653;BME280;4364;52.426;9.424;2022-10-31T09:21:47;101662.69;;;14.36;95.04
8653;BME280;4364;52.426;9.424;2022-10-31T09:24:14;101658.88;;;14.37;94.87
8653;BME280;4364;52.426;9.424;2022-10-31T09:26:41;101655.03;;;14.38;94.55
8653;BME280;4364;52.426;9.424;2022-10-31T09:29:18;101654.19;;;14.42;94.56
8653;BME280;4364;52.426;9.424;2022-10-31T09:31:49;101653.63;;;14.45;94.89
8653;BME280;4364;52.426;9.424;2022-10-31T09:34:27;101651.47;;;14.42;93.96
8653;BME280;4364;52.426;9.424;2022-10-31T09:37:01;101652.50;;;14.62;93.07
8653;BME280;4364;52.426;9.424;2022-10-31T09:39:28;101655.19;;;14.72;90.72
8653;BME280;4364;52.426;9.424;2022-10-31T09:42:09;101656.59;;;14.59;91.19
8653;BME280;4364;52.426;9.424;2022-10-31T09:48:04;101652.78;;;14.55;92.29
8653;BME280;4364;52.426;9.424;2022-10-31T09:50:50;101653.03;;;14.64;91.42
8653;BME280;4364;52.426;9.424;2022-10-31T09:53:54;101654.09;;;14.68;91.67
8653;BME280;4364;52.426;9.424;2022-10-31T09:56:25;101646.47;;;14.65;91.60
8653;BME280;4364;52.426;9.424;2022-10-31T09:58:58;101651.94;;;14.65;91.79
8653;BME280;4364;52.426;9.424;2022-10-31T10:16:38;101654.78;;;14.94;91.65
8653;BME280;4364;52.426;9.424;2022-10-31T10:19:29;101645.72;;;14.99;90.88
8653;BME280;4364;52.426;9.424;2022-10-31T10:29:58;101637.13;;;15.16;89.92
8653;BME280;4364;52.426;9.424;2022-10-31T10:32:30;101641.78;;;15.15;89.34
8653;BME280;4364;52.426;9.424;2022-10-31T10:35:11;101639.66;;;15.07;90.02
8653;BME280;4364;52.426;9.424;2022-10-31T10:37:44;101644.28;;;15.07;90.39
8653;BME280;4364;52.426;9.424;2022-10-31T10:40:17;101644.25;;;15.17;90.12
8653;BME280;4364;52.426;9.424;2022-10-31T10:42:53;101637.09;;;15.21;89.67
8653;BME280;4364;52.426;9.424;2022-10-31T10:45:42;101645.06;;;15.17;90.10
8653;BME280;4364;52.426;9.424;2022-10-31T10:51:19;101634.53;;;15.30;89.55
8653;BME280;4364;52.426;9.424;2022-10-31T10:57:13;101622.69;;;15.40;87.58
8653;BME280;4364;52.426;9.424;2022-10-31T10:59:45;101625.94;;;15.42;86.92
8653;BME280;4364;52.426;9.424;2022-10-31T11:02:20;101622.06;;;15.48;86.89
8653;BME280;4364;52.426;9.424;2022-10-31T11:04:52;101623.72;;;15.49;86.37
8653;BME280;4364;52.426;9.424;2022-10-31T11:07:19;101621.75;;;15.54;86.26
8653;BME280;4364;52.426;9.424;2022-10-31T11:09:48;101616.34;;;15.79;84.02
8653;BME280;4364;52.426;9.424;2022-10-31T11:12:27;101615.53;;;15.73;83.98
8653;BME280;4364;52.426;9.424;2022-10-31T11:14:58;101608.78;;;15.60;84.79
8653;BME280;4364;52.426;9.424;2022-10-31T11:17:36;101597.53;;;15.62;84.12
8653;BME280;4364;52.426;9.424;2022-10-31T11:20:24;101597.25;;;15.63;83.58
8653;BME280;4364;52.426;9.424;2022-10-31T11:23:04;101594.47;;;15.68;82.98
8653;BME280;4364;52.426;9.424;2022-10-31T11:25:32;101595.63;;;15.62;83.26
8653;BME280;4364;52.426;9.424;2022-10-31T11:28:07;101594.47;;;15.68;82.95
8653;BME280;4364;52.426;9.424;2022-10-31T11:30:43;101596.16;;;15.64;83.35
8653;BME280;4364;52.426;9.424;2022-10-31T11:33:37;101597.03;;;15.89;81.74
8653;BME280;4364;52.426;9.424;2022-10-31T11:36:22;101587.50;;;15.81;82.22
8653;BME280;4364;52.426;9.424;2022-10-31T11:38:50;101593.06;;;15.76;82.49
8653;BME280;4364;52.426;9.424;2022-10-31T11:41:19;101583.06;;;15.85;81.87
8653;BME280;4364;52.426;9.424;2022-10-31T11:43:58;101577.00;;;15.88;81.64
8653;BME280;4364;52.426;9.424;2022-10-31T11:49:02;101579.63;;;15.99;81.29
8653;BME280;4364;52.426;9.424;2022-10-31T11:51:32;101583.19;;;15.99;81.74
8653;BME280;4364;52.426;9.424;2022-10-31T11:54:01;101581.19;;;16.05;81.57
8653;BME280;4364;52.426;9.424;2022-10-31T11:56:40;101577.94;;;16.03;81.19
8653;BME280;4364;52.426;9.424;2022-10-31T11:59:33;101574.56;;;16.11;78.97
8653;BME280;4364;52.426;9.424;2022-10-31T12:02:01;101568.50;;;16.14;80.20
8653;BME280;4364;52.426;9.424;2022-10-31T12:04:37;101553.47;;;16.06;80.32
8653;BME280;4364;52.426;9.424;2022-10-31T12:07:05;101555.88;;;16.13;80.03
8653;BME280;4364;52.426;9.424;2022-10-31T12:09:36;101549.88;;;16.11;80.13
8653;BME280;4364;52.426;9.424;2022-10-31T12:12:35;101545.19;;;16.11;80.26
8653;BME280;4364;52.426;9.424;2022-10-31T12:18:17;101547.06;;;16.16;80.37
8653;BME280;4364;52.426;9.424;2022-10-31T12:21:09;101546.84;;;16.13;80.25
8653;BME280;4364;52.426;9.424;2022-10-31T12:23:45;101542.09;;;16.18;80.63
8653;BME280;4364;52.426;9.424;2022-10-31T12:26:24;101539.63;;;16.17;80.31
8653;BME280;4364;52.426;9.424;2022-10-31T12:37:15;101525.47;;;16.28;79.38
8653;BME280;4364;52.426;9.424;2022-10-31T12:42:46;101516.50;;;16.42;79.48
8653;BME280;4364;52.426;9.424;2022-10-31T12:51:33;101506.22;;;16.53;78.37
8653;BME280;4364;52.426;9.424;2022-10-31T12:57:09;101492.78;;;16.51;78.21
8653;BME280;4364;52.426;9.424;2022-10-31T12:59:43;101482.03;;;16.55;78.12
8653;BME280;4364;52.426;9.424;2022-10-31T13:02:29;101472.00;;;16.64;77.67
8653;BME280;4364;52.426;9.424;2022-10-31T13:05:02;101471.53;;;16.57;77.79
8653;BME280;4364;52.426;9.424;2022-10-31T13:07:36;101479.66;;;16.48;78.17
8653;BME280;4364;52.426;9.424;2022-10-31T13:10:20;101478.63;;;16.44;79.09
8653;BME280;4364;52.426;9.424;2022-10-31T13:12:52;101464.16;;;16.38;79.41
8653;BME280;4364;52.426;9.424;2022-10-31T13:15:23;101456.66;;;16.25;79.57
8653;BME280;4364;52.426;9.424;2022-10-31T13:17:56;101451.69;;;16.46;78.62
8653;BME280;4364;52.426;9.424;2022-10-31T13:20:29;101442.94;;;16.44;79.69
8653;BME280;4364;52.426;9.424;2022-10-31T13:23:11;101454.06;;;16.34;81.41
8653;BME280;4364;52.426;9.424;2022-10-31T13:26:09;101448.81;;;16.37;81.35
8653;BME280;4364;52.426;9.424;2022-10-31T13:29:09;101445.16;;;16.42;81.61
8653;BME280;4364;52.426;9.424;2022-10-31T13:31:40;101434.84;;;16.34;82.65
8653;BME280;4364;52.426;9.424;2022-10-31T13:34:19;101436.63;;;16.43;81.59
8653;BME280;4364;52.426;9.424;2022-10-31T13:36:58;101428.25;;;16.35;82.44
8653;BME280;4364;52.426;9.424;2022-10-31T13:44:46;101411.28;;;16.33;82.06
8653;BME280;4364;52.426;9.424;2022-10-31T13:47:30;101409.13;;;16.29;82.59
8653;BME280;4364;52.426;9.424;2022-10-31T13:50:19;101406.38;;;16.29;83.00
8653;BME280;4364;52.426;9.424;2022-10-31T13:52:46;101397.84;;;16.31;82.67
8653;BME280;4364;52.426;9.424;2022-10-31T13:58:04;101392.88;;;16.33;83.11
8653;BME280;4364;52.426;9.424;2022-10-31T14:00:31;101384.22;;;16.26;83.87
8653;BME280;4364;52.426;9.424;2022-10-31T14:03:02;101376.28;;;16.24;83.75
8653;BME280;4364;52.426;9.424;2022-10-31T14:05:34;101370.75;;;16.10;84.79
8653;BME280;4364;52.426;9.424;2022-10-31T14:08:04;101366.94;;;16.06;84.96
8653;BME280;4364;52.426;9.424;2022-10-31T14:10:37;101360.66;;;16.06;85.19
8653;BME280;4364;52.426;9.424;2022-10-31T14:13:12;101365.38;;;16.19;84.40
8653;BME280;4364;52.426;9.424;2022-10-31T14:15:50;101363.56;;;15.96;85.52
8653;BME280;4364;52.426;9.424;2022-10-31T14:18:24;101364.06;;;15.98;86.08
8653;BME280;4364;52.426;9.424;2022-10-31T14:20:51;101358.38;;;15.94;86.39
8653;BME280;4364;52.426;9.424;2022-10-31T14:28:58;101366.03;;;15.73;88.56
8653;BME280;4364;52.426;9.424;2022-10-31T14:45:25;101355.28;;;15.57;90.22
8653;BME280;4364;52.426;9.424;2022-10-31T14:50:50;101350.44;;;15.49;91.19
8653;BME280;4364;52.426;9.424;2022-10-31T14:55:49;101345.09;;;15.39;91.97
8653;BME280;4364;52.426;9.424;2022-10-31T14:58:37;101339.09;;;15.37;92.39
8653;BME280;4364;52.426;9.424;2022-10-31T15:01:05;101335.53;;;15.36;92.11
8653;BME280;4364;52.426;9.424;2022-10-31T15:03:33;101337.81;;;15.29;92.88
8653;BME280;4364;52.426;9.424;2022-10-31T15:06:09;101333.09;;;15.35;92.73
8653;BME280;4364;52.426;9.424;2022-10-31T15:08:51;101339.16;;;15.32;92.93
8653;BME280;4364;52.426;9.424;2022-10-31T15:11:23;101328.59;;;15.20;93.82
8653;BME280;4364;52.426;9.424;2022-10-31T15:13:58;101324.78;;;15.21;93.15
8653;BME280;4364;52.426;9.424;2022-10-31T15:16:39;101323.53;;;15.08;94.22
8653;BME280;4364;52.426;9.424;2022-10-31T15:19:12;101325.53;;;15.03;94.93
8653;BME280;4364;52.426;9.424;2022-10-31T15:21:43;101310.63;;;15.14;94.59
8653;BME280;4364;52.426;9.424;2022-10-31T15:24:12;101304.16;;;15.05;94.59
8653;BME280;4364;52.426;9.424;2022-10-31T15:26:45;101298.50;;;14.96;95.34
8653;BME280;4364;52.426;9.424;2022-10-31T15:29:18;101291.69;;;14.93;95.91
8653;BME280;4364;52.426;9.424;2022-10-31T15:31:53;101287.31;;;14.92;96.32
8653;BME280;4364;52.426;9.424;2022-10-31T15:34:38;101291.16;;;14.91;95.93
8653;BME280;4364;52.426;9.424;2022-10-31T15:37:13;101285.81;;;14.81;96.42
8653;BME280;4364;52.426;9.424;2022-10-31T15:39:42;101288.59;;;14.76;96.74